createdAt,value
2023-05-21T00:00:31.957Z,70141.72
2023-05-21T00:04:33.870Z,70141.72
2023-05-21T00:08:35.605Z,70141.72
2023-05-21T00:12:37.316Z,70141.72
2023-05-21T00:16:38.959Z,70141.72
2023-05-21T00:20:41.627Z,70141.72
2023-05-21T00:24:45.361Z,70141.72
2023-05-21T00:28:47.010Z,70141.72
2023-05-21T00:32:48.664Z,70141.72
2023-05-21T00:36:50.262Z,70141.72
2023-05-21T00:40:51.748Z,70141.72
2023-05-21T00:44:56.962Z,70141.72
2023-05-21T00:48:59.016Z,70141.72
2023-05-21T00:53:00.783Z,70141.72
2023-05-21T00:57:04.029Z,70141.72
2023-05-21T01:01:06.867Z,70141.72
2023-05-21T01:05:08.967Z,70141.72
2023-05-21T01:09:10.532Z,70141.72
2023-05-21T01:13:12.382Z,70141.72
2023-05-21T01:17:14.639Z,70141.72
2023-05-21T01:21:17.325Z,70141.72
2023-05-21T01:27:02.346Z,101437.38
2023-05-21T01:31:26.434Z,101434.69
2023-05-21T01:35:32.857Z,101441.97
2023-05-21T01:39:38.614Z,101422.09
2023-05-21T01:43:43.862Z,101433.81
2023-05-21T01:47:48.240Z,101431.66
2023-05-21T01:51:49.978Z,101432.72
2023-05-21T01:55:51.872Z,101433.34
2023-05-21T01:59:53.706Z,101421.31
2023-05-21T02:03:55.573Z,101421.34
2023-05-21T02:07:57.214Z,101417.44
2023-05-21T02:11:58.784Z,101423.84
2023-05-21T02:16:01.570Z,101413.34
2023-05-21T02:20:22.682Z,101407.78
2023-05-21T02:24:24.480Z,101408.50
2023-05-21T02:28:25.977Z,101407.50
2023-05-21T02:32:27.540Z,101411.63
2023-05-21T02:36:33.215Z,101409.97
2023-05-21T02:40:34.884Z,101413.50
2023-05-21T02:44:36.475Z,101405.06
2023-05-21T02:48:37.998Z,101406.50
2023-05-21T02:52:39.544Z,101409.66
2023-05-21T02:56:41.431Z,101409.06
2023-05-21T03:00:42.948Z,101401.94
2023-05-21T03:04:47.824Z,101394.53
2023-05-21T03:08:49.395Z,101401.53
2023-05-21T03:12:50.979Z,101399.81
2023-05-21T03:16:52.565Z,101401.88
2023-05-21T03:20:54.154Z,101399.28
2023-05-21T03:24:55.891Z,101403.56
2023-05-21T03:28:57.546Z,101412.75
2023-05-21T03:32:59.982Z,101404.75
2023-05-21T03:37:01.560Z,101403.66
2023-05-21T03:41:03.060Z,101412.00
2023-05-21T03:45:04.943Z,101410.38
2023-05-21T03:49:06.585Z,101415.00
2023-05-21T03:53:10.706Z,101416.47
2023-05-21T03:57:12.230Z,101404.72
2023-05-21T04:01:13.727Z,101416.38
2023-05-21T04:05:15.195Z,101412.81
2023-05-21T04:09:16.852Z,101407.22
2023-05-21T04:13:18.438Z,101405.53
2023-05-21T04:17:20.788Z,101411.25
2023-05-21T04:21:22.559Z,101411.63
2023-05-21T04:25:25.316Z,101416.19
2023-05-21T04:29:30.206Z,101416.69
2023-05-21T04:33:31.713Z,101407.88
2023-05-21T04:37:35.022Z,101408.53
2023-05-21T04:41:36.737Z,101420.47
2023-05-21T04:45:38.460Z,101415.50
2023-05-21T04:49:40.375Z,101412.34
2023-05-21T04:53:42.504Z,101416.78
2023-05-21T04:57:44.020Z,101418.72
2023-05-21T05:01:45.730Z,101419.38
2023-05-21T05:05:47.591Z,101421.19
2023-05-21T05:09:49.248Z,101418.91
2023-05-21T05:13:52.243Z,101419.97
2023-05-21T05:17:54.605Z,101417.66
2023-05-21T05:21:56.268Z,101420.50
2023-05-21T05:25:57.714Z,101417.78
2023-05-21T05:29:59.199Z,101400.25
2023-05-21T05:34:00.821Z,101409.97
2023-05-21T05:38:02.326Z,101405.69
2023-05-21T05:42:04.151Z,101412.59
2023-05-21T05:46:05.628Z,101419.50
2023-05-21T05:50:07.518Z,101405.53
2023-05-21T05:54:08.977Z,101418.31
2023-05-21T05:58:10.446Z,101410.28
2023-05-21T06:02:12.066Z,101416.84
2023-05-21T06:06:13.656Z,101408.78
2023-05-21T06:10:15.340Z,101414.84
2023-05-21T06:14:17.130Z,101406.84
2023-05-21T06:18:18.632Z,101406.38
2023-05-21T06:22:20.101Z,101408.69
2023-05-21T06:26:21.919Z,101408.31
2023-05-21T06:30:23.383Z,101402.47
2023-05-21T06:34:25.479Z,101408.03
2023-05-21T06:38:26.992Z,101399.97
2023-05-21T06:42:28.440Z,101404.47
2023-05-21T06:46:29.942Z,101392.97
2023-05-21T06:50:31.495Z,101396.94
2023-05-21T06:54:33.014Z,101398.53
2023-05-21T06:58:34.603Z,101394.22
2023-05-21T07:02:36.540Z,101403.53
2023-05-21T07:06:39.128Z,101402.81
2023-05-21T07:10:40.830Z,101405.63
2023-05-21T07:14:42.257Z,101411.25
2023-05-21T07:18:43.750Z,101403.19
2023-05-21T07:22:45.368Z,101391.56
2023-05-21T07:26:47.051Z,101397.03
2023-05-21T07:30:48.611Z,101387.81
2023-05-21T07:34:50.828Z,101394.16
2023-05-21T07:38:53.105Z,101382.81
2023-05-21T07:42:54.632Z,101390.78
2023-05-21T07:46:56.227Z,101392.78
2023-05-21T07:50:58.727Z,101388.94
2023-05-21T07:55:01.581Z,101386.38
2023-05-21T07:59:03.181Z,101381.91
2023-05-21T08:03:07.565Z,101381.28
2023-05-21T08:07:09.842Z,101387.97
2023-05-21T08:11:11.472Z,101378.63
2023-05-21T08:15:12.976Z,101380.38
2023-05-21T08:19:14.641Z,101376.50
2023-05-21T08:23:16.173Z,101377.31
2023-05-21T08:27:17.648Z,101379.41
2023-05-21T08:31:19.270Z,101382.50
2023-05-21T08:35:20.950Z,101369.03
2023-05-21T08:39:22.485Z,101379.44
2023-05-21T08:43:29.141Z,101381.94
2023-05-21T08:47:34.329Z,101375.03
2023-05-21T08:51:36.030Z,101372.53
2023-05-21T08:55:38.875Z,101377.31
2023-05-21T08:59:44.131Z,101382.03
2023-05-21T09:07:55.377Z,101376.09
2023-05-21T09:11:56.892Z,101373.53
2023-05-21T09:15:59.232Z,101374.94
2023-05-21T09:20:16.629Z,101366.50
2023-05-21T09:24:22.511Z,101358.66
2023-05-21T09:28:25.038Z,101363.00
2023-05-21T09:32:26.520Z,101361.78
2023-05-21T09:36:29.604Z,101355.75
2023-05-21T09:40:31.332Z,101349.78
2023-05-21T09:44:32.997Z,101351.13
2023-05-21T09:48:40.781Z,101349.53
2023-05-21T09:52:42.415Z,101354.03
2023-05-21T09:56:44.121Z,101351.81
2023-05-21T10:00:45.908Z,101344.44
2023-05-21T10:04:50.279Z,101336.75
2023-05-21T10:08:56.641Z,101334.66
2023-05-21T10:13:06.708Z,101337.38
2023-05-21T10:17:09.321Z,101329.22
2023-05-21T10:21:11.011Z,101331.25
2023-05-21T10:25:13.195Z,101328.22
2023-05-21T10:29:17.434Z,101321.31
2023-05-21T10:33:24.157Z,101307.19
2023-05-21T10:37:27.583Z,101308.75
2023-05-21T10:41:36.052Z,101312.69
2023-05-21T10:45:56.894Z,101309.53
2023-05-21T10:50:08.589Z,101310.69
2023-05-21T10:54:18.946Z,101318.53
2023-05-21T10:58:44.128Z,101306.75
2023-05-21T11:02:46.894Z,101305.66
2023-05-21T11:06:48.836Z,101315.28
2023-05-21T11:11:00.546Z,101290.13
2023-05-21T11:15:02.275Z,101291.16
2023-05-21T11:19:08.731Z,101294.38
2023-05-21T11:23:11.388Z,101287.19
2023-05-21T11:27:12.999Z,101284.13
2023-05-21T11:31:27.847Z,101281.56
2023-05-21T11:35:29.379Z,101279.91
2023-05-21T11:39:40.204Z,101280.16
2023-05-21T11:43:43.686Z,101286.66
2023-05-21T11:47:46.872Z,101289.69
2023-05-21T11:51:48.662Z,101289.47
2023-05-21T11:55:50.906Z,101275.94
2023-05-21T11:59:52.596Z,101269.75
2023-05-21T12:03:54.160Z,101269.19
2023-05-21T12:07:56.437Z,101271.28
2023-05-21T12:11:58.108Z,101272.50
2023-05-21T12:15:59.812Z,101276.72
2023-05-21T12:20:04.998Z,101271.53
2023-05-21T12:24:06.703Z,101259.03
2023-05-21T12:28:08.910Z,101265.91
2023-05-21T12:32:12.731Z,101258.44
2023-05-21T12:36:27.238Z,101267.00
2023-05-21T12:40:39.712Z,101260.00
2023-05-21T12:44:47.903Z,101264.03
2023-05-21T12:48:51.559Z,101266.13
2023-05-21T12:52:58.351Z,101259.59
2023-05-21T12:57:09.667Z,101258.44
2023-05-21T13:01:12.389Z,101253.97
2023-05-21T13:05:18.358Z,101246.84
2023-05-21T13:09:19.885Z,101254.81
2023-05-21T13:13:21.358Z,101243.84
2023-05-21T13:17:24.679Z,101242.94
2023-05-21T13:21:26.294Z,101244.44
2023-05-21T13:25:29.134Z,101248.31
2023-05-21T13:29:31.286Z,101249.44
2023-05-21T13:33:32.904Z,101234.38
2023-05-21T13:37:37.857Z,101240.09
2023-05-21T13:41:39.384Z,101235.72
2023-05-21T13:45:41.015Z,101220.81
2023-05-21T13:49:42.722Z,101221.84
2023-05-21T13:53:44.210Z,101220.84
2023-05-21T13:57:46.259Z,101222.44
2023-05-21T14:01:49.834Z,101217.06
2023-05-21T14:05:53.650Z,101217.72
2023-05-21T14:09:56.037Z,101215.25
2023-05-21T14:13:58.483Z,101223.97
2023-05-21T14:18:00.082Z,101210.03
2023-05-21T14:22:02.092Z,101210.91
2023-05-21T14:26:03.683Z,101209.91
2023-05-21T14:30:05.728Z,101217.00
2023-05-21T14:34:08.679Z,101211.50
2023-05-21T14:38:11.113Z,101221.31
2023-05-21T14:42:12.895Z,101221.38
2023-05-21T14:46:14.368Z,101221.28
2023-05-21T14:50:16.532Z,101219.22
2023-05-21T14:54:18.046Z,101224.13
2023-05-21T14:58:20.004Z,101225.88
2023-05-21T15:02:22.382Z,101223.31
2023-05-21T15:06:24.515Z,101213.81
2023-05-21T15:10:27.482Z,101212.19
2023-05-21T15:14:28.974Z,101208.56
2023-05-21T15:18:30.536Z,101211.41
2023-05-21T15:22:32.674Z,101205.22
2023-05-21T15:26:34.125Z,101206.00
2023-05-21T15:30:35.749Z,101201.22
2023-05-21T15:34:37.409Z,101199.53
2023-05-21T15:38:38.980Z,101195.59
2023-05-21T15:42:40.698Z,101197.94
2023-05-21T15:46:42.178Z,101187.47
2023-05-21T15:50:43.679Z,101186.13
2023-05-21T15:54:45.539Z,101190.75
2023-05-21T15:58:47.035Z,101196.84
2023-05-21T16:02:48.645Z,101196.28
2023-05-21T16:06:50.319Z,101200.38
2023-05-21T16:10:51.852Z,101186.59
2023-05-21T16:14:56.053Z,101189.41
2023-05-21T16:18:57.622Z,101181.72
2023-05-21T16:22:59.134Z,101180.63
2023-05-21T16:27:03.092Z,101178.72
2023-05-21T16:31:04.928Z,101174.56
2023-05-21T16:35:07.190Z,101172.16
2023-05-21T16:39:14.862Z,101172.66
2023-05-21T16:43:16.749Z,101177.84
2023-05-21T16:47:24.329Z,101180.09
2023-05-21T16:51:25.909Z,101180.16
2023-05-21T16:55:27.401Z,101179.28
2023-05-21T16:59:28.860Z,101179.09
2023-05-21T17:03:32.376Z,101181.00
2023-05-21T17:07:34.299Z,101187.97
2023-05-21T17:11:36.075Z,101189.72
2023-05-21T17:15:37.942Z,101189.25
2023-05-21T17:19:39.754Z,101191.91
2023-05-21T17:23:42.790Z,101194.50
2023-05-21T17:27:47.517Z,101184.91
2023-05-21T17:31:49.298Z,101187.94
2023-05-21T17:35:50.959Z,101185.78
2023-05-21T17:39:52.509Z,101184.19
2023-05-21T17:43:54.305Z,101176.34
2023-05-21T17:47:59.651Z,101178.06
2023-05-21T17:52:04.387Z,101186.22
2023-05-21T17:56:06.859Z,101186.28
2023-05-21T18:00:09.032Z,101193.31
2023-05-21T18:04:12.266Z,101191.13
2023-05-21T18:08:14.316Z,101200.97
2023-05-21T18:12:16.483Z,101204.31
2023-05-21T18:16:18.494Z,101203.53
2023-05-21T18:20:20.015Z,101210.53
2023-05-21T18:24:21.537Z,101218.19
2023-05-21T18:28:23.089Z,101212.44
2023-05-21T18:32:24.927Z,101206.31
2023-05-21T18:36:26.717Z,101211.09
2023-05-21T18:40:30.606Z,101213.94
2023-05-21T18:44:32.708Z,101218.69
2023-05-21T18:48:34.197Z,101216.19
2023-05-21T18:52:35.671Z,101219.00
2023-05-21T18:56:37.222Z,101212.88
2023-05-21T19:00:39.726Z,101216.50
2023-05-21T19:04:41.553Z,101219.50
2023-05-21T19:08:52.533Z,101225.75
2023-05-21T19:12:54.147Z,101227.63
2023-05-21T19:16:55.808Z,101233.66
2023-05-21T19:20:57.562Z,101240.75
2023-05-21T19:24:59.364Z,101251.34
2023-05-21T19:29:01.060Z,101258.22
2023-05-21T19:33:02.677Z,101260.53
2023-05-21T19:37:04.514Z,101261.06
2023-05-21T19:41:06.078Z,101261.34
2023-05-21T19:45:09.576Z,101266.41
2023-05-21T19:49:12.582Z,101257.38
2023-05-21T19:53:14.052Z,101268.31
2023-05-21T19:57:16.467Z,101257.00
2023-05-21T20:01:18.692Z,101263.31
2023-05-21T20:05:20.481Z,101261.19
2023-05-21T20:09:22.065Z,101261.47
2023-05-21T20:13:24.216Z,101261.78
2023-05-21T20:17:25.700Z,101259.84
2023-05-21T20:21:29.559Z,101260.81
2023-05-21T20:25:31.063Z,101267.28
2023-05-21T20:29:32.733Z,101268.19
2023-05-21T20:33:35.161Z,101268.19
2023-05-21T20:37:36.733Z,101266.81
2023-05-21T20:41:38.681Z,101269.09
2023-05-21T20:45:41.754Z,101275.06
2023-05-21T20:49:43.777Z,101276.41
2023-05-21T20:53:45.310Z,101267.97
2023-05-21T20:57:47.238Z,101269.66
2023-05-21T21:01:48.798Z,101267.53
2023-05-21T21:05:50.646Z,101274.66
2023-05-21T21:09:52.146Z,101273.72
2023-05-21T21:13:53.715Z,101273.75
2023-05-21T21:17:55.305Z,101280.72
2023-05-21T21:21:56.925Z,101281.16
2023-05-21T21:25:58.474Z,101276.63
2023-05-21T21:29:59.975Z,101283.22
2023-05-21T21:34:01.555Z,101275.97
2023-05-21T21:38:05.140Z,101280.97
2023-05-21T21:42:07.048Z,101289.13
2023-05-21T21:46:08.773Z,101283.13
2023-05-21T21:50:10.668Z,101283.50
2023-05-21T21:54:12.291Z,101280.88
2023-05-21T21:58:13.829Z,101280.25
2023-05-21T22:02:17.822Z,101276.97
2023-05-21T22:06:19.400Z,101282.06
2023-05-21T22:10:21.223Z,101281.03
2023-05-21T22:14:23.273Z,101285.94
2023-05-21T22:18:38.841Z,101280.53
2023-05-21T22:22:41.536Z,101277.88
2023-05-21T22:26:43.633Z,101278.28
2023-05-21T22:30:45.137Z,101279.00
2023-05-21T22:34:46.753Z,101279.84
2023-05-21T22:38:48.173Z,101273.88
2023-05-21T22:42:49.675Z,101276.50
2023-05-21T22:46:51.908Z,101280.44
2023-05-21T22:50:54.391Z,101278.50
2023-05-21T22:54:57.822Z,101283.38
2023-05-21T22:58:59.541Z,101285.78
2023-05-21T23:03:01.361Z,101280.13
2023-05-21T23:07:03.060Z,101286.75
2023-05-21T23:11:04.604Z,101288.38
2023-05-21T23:15:07.481Z,101267.97
2023-05-21T23:19:09.223Z,101276.00
2023-05-21T23:23:11.270Z,101276.41
2023-05-21T23:27:12.765Z,101263.16
2023-05-21T23:31:14.384Z,101275.72
2023-05-21T23:35:16.214Z,101273.28
2023-05-21T23:39:18.357Z,101264.75
2023-05-21T23:43:19.897Z,101265.25
2023-05-21T23:47:21.394Z,101259.31
2023-05-21T23:51:23.026Z,101255.72
2023-05-21T23:55:24.521Z,101260.97
2023-05-21T23:59:26.039Z,101256.19
